sensor_id;sensor_type;location;lat;lon;timestamp;P1;durP1;ratioP1;P2;durP2;ratioP2
16824;SDS011;8529;48.108;-1.706;2023-07-29T00:01:48;2.25;;;0.73;;
16824;SDS011;8529;48.108;-1.706;2023-07-29T00:04:16;1.30;;;0.95;;
16824;SDS011;8529;48.108;-1.706;2023-07-29T00:06:44;0.75;;;0.73;;
16824;SDS011;8529;48.108;-1.706;2023-07-29T00:09:12;1.20;;;0.80;;
16824;SDS011;8529;48.108;-1.706;2023-07-29T00:11:39;1.13;;;0.88;;
16824;SDS011;8529;48.108;-1.706;2023-07-29T00:14:06;1.95;;;0.82;;
16824;SDS011;8529;48.108;-1.706;2023-07-29T00:16:34;1.42;;;0.85;;
16824;SDS011;8529;48.108;-1.706;2023-07-29T00:19:02;2.78;;;1.58;;
16824;SDS011;8529;48.108;-1.706;2023-07-29T00:21:29;1.98;;;1.20;;
16824;SDS011;8529;48.108;-1.706;2023-07-29T00:23:56;2.05;;;0.98;;
16824;SDS011;8529;48.108;-1.706;2023-07-29T00:26:25;1.00;;;0.80;;
16824;SDS011;8529;48.108;-1.706;2023-07-29T00:28:54;0.93;;;0.68;;
16824;SDS011;8529;48.108;-1.706;2023-07-29T00:31:21;1.30;;;0.95;;
16824;SDS011;8529;48.108;-1.706;2023-07-29T00:33:48;2.00;;;1.27;;
16824;SDS011;8529;48.108;-1.706;2023-07-29T00:36:15;0.95;;;0.82;;
16824;SDS011;8529;48.108;-1.706;2023-07-29T00:38:42;1.40;;;0.82;;
16824;SDS011;8529;48.108;-1.706;2023-07-29T00:41:09;1.33;;;1.00;;
16824;SDS011;8529;48.108;-1.706;2023-07-29T00:43:39;1.08;;;0.88;;
16824;SDS011;8529;48.108;-1.706;2023-07-29T00:46:07;2.78;;;1.55;;
16824;SDS011;8529;48.108;-1.706;2023-07-29T00:48:35;1.45;;;0.90;;
16824;SDS011;8529;48.108;-1.706;2023-07-29T00:51:02;2.17;;;1.15;;
16824;SDS011;8529;48.108;-1.706;2023-07-29T00:53:30;2.25;;;1.17;;
16824;SDS011;8529;48.108;-1.706;2023-07-29T00:55:57;2.00;;;0.98;;
16824;SDS011;8529;48.108;-1.706;2023-07-29T00:58:24;1.02;;;0.80;;
16824;SDS011;8529;48.108;-1.706;2023-07-29T01:00:53;1.63;;;1.00;;
16824;SDS011;8529;48.108;-1.706;2023-07-29T01:03:20;1.85;;;1.20;;
16824;SDS011;8529;48.108;-1.706;2023-07-29T01:05:50;1.38;;;1.00;;
16824;SDS011;8529;48.108;-1.706;2023-07-29T01:08:21;1.63;;;1.00;;
16824;SDS011;8529;48.108;-1.706;2023-07-29T01:10:51;2.30;;;1.20;;
16824;SDS011;8529;48.108;-1.706;2023-07-29T01:13:22;0.82;;;0.80;;
16824;SDS011;8529;48.108;-1.706;2023-07-29T01:15:53;2.17;;;1.10;;
16824;SDS011;8529;48.108;-1.706;2023-07-29T01:18:22;1.45;;;1.10;;
16824;SDS011;8529;48.108;-1.706;2023-07-29T01:20:50;1.67;;;1.23;;
16824;SDS011;8529;48.108;-1.706;2023-07-29T01:23:24;2.25;;;0.90;;
16824;SDS011;8529;48.108;-1.706;2023-07-29T01:25:51;2.78;;;1.00;;
16824;SDS011;8529;48.108;-1.706;2023-07-29T01:28:19;2.08;;;1.10;;
16824;SDS011;8529;48.108;-1.706;2023-07-29T01:30:46;1.50;;;1.17;;
16824;SDS011;8529;48.108;-1.706;2023-07-29T01:33:16;4.40;;;1.10;;
16824;SDS011;8529;48.108;-1.706;2023-07-29T01:35:45;1.48;;;1.17;;
16824;SDS011;8529;48.108;-1.706;2023-07-29T01:38:14;1.60;;;1.10;;
16824;SDS011;8529;48.108;-1.706;2023-07-29T01:40:43;2.22;;;1.38;;
16824;SDS011;8529;48.108;-1.706;2023-07-29T01:43:10;1.98;;;1.15;;
16824;SDS011;8529;48.108;-1.706;2023-07-29T01:45:38;2.95;;;1.55;;
16824;SDS011;8529;48.108;-1.706;2023-07-29T01:48:06;3.00;;;0.90;;
16824;SDS011;8529;48.108;-1.706;2023-07-29T01:50:33;2.13;;;1.50;;
16824;SDS011;8529;48.108;-1.706;2023-07-29T01:53:00;1.00;;;0.88;;
16824;SDS011;8529;48.108;-1.706;2023-07-29T01:55:27;1.33;;;1.05;;
16824;SDS011;8529;48.108;-1.706;2023-07-29T01:57:56;1.75;;;1.40;;
16824;SDS011;8529;48.108;-1.706;2023-07-29T02:00:23;3.50;;;1.00;;
16824;SDS011;8529;48.108;-1.706;2023-07-29T02:02:50;2.28;;;1.10;;
16824;SDS011;8529;48.108;-1.706;2023-07-29T02:05:17;1.50;;;1.40;;
16824;SDS011;8529;48.108;-1.706;2023-07-29T02:07:45;2.05;;;1.23;;
16824;SDS011;8529;48.108;-1.706;2023-07-29T02:10:12;2.20;;;1.38;;
16824;SDS011;8529;48.108;-1.706;2023-07-29T02:12:39;1.20;;;1.10;;
16824;SDS011;8529;48.108;-1.706;2023-07-29T02:15:09;4.57;;;1.13;;
16824;SDS011;8529;48.108;-1.706;2023-07-29T02:17:36;1.70;;;1.10;;
16824;SDS011;8529;48.108;-1.706;2023-07-29T02:20:04;2.38;;;1.20;;
16824;SDS011;8529;48.108;-1.706;2023-07-29T02:22:31;4.10;;;1.48;;
16824;SDS011;8529;48.108;-1.706;2023-07-29T02:24:58;2.40;;;1.17;;
16824;SDS011;8529;48.108;-1.706;2023-07-29T02:27:26;3.88;;;1.48;;
16824;SDS011;8529;48.108;-1.706;2023-07-29T02:29:53;1.77;;;1.20;;
16824;SDS011;8529;48.108;-1.706;2023-07-29T02:32:22;4.55;;;1.67;;
16824;SDS011;8529;48.108;-1.706;2023-07-29T02:34:49;2.40;;;1.52;;
16824;SDS011;8529;48.108;-1.706;2023-07-29T02:37:16;5.05;;;1.50;;
16824;SDS011;8529;48.108;-1.706;2023-07-29T02:39:44;3.13;;;1.15;;
16824;SDS011;8529;48.108;-1.706;2023-07-29T02:42:11;2.20;;;1.33;;
16824;SDS011;8529;48.108;-1.706;2023-07-29T02:44:39;2.75;;;1.42;;
16824;SDS011;8529;48.108;-1.706;2023-07-29T02:47:06;1.75;;;1.20;;
16824;SDS011;8529;48.108;-1.706;2023-07-29T02:49:35;2.83;;;1.42;;
16824;SDS011;8529;48.108;-1.706;2023-07-29T02:52:02;2.38;;;1.25;;
16824;SDS011;8529;48.108;-1.706;2023-07-29T02:54:30;4.43;;;1.50;;
16824;SDS011;8529;48.108;-1.706;2023-07-29T02:56:57;2.88;;;1.48;;
16824;SDS011;8529;48.108;-1.706;2023-07-29T02:59:25;2.15;;;1.30;;
16824;SDS011;8529;48.108;-1.706;2023-07-29T03:01:53;1.90;;;1.33;;
16824;SDS011;8529;48.108;-1.706;2023-07-29T03:04:19;1.77;;;1.20;;
16824;SDS011;8529;48.108;-1.706;2023-07-29T03:06:48;4.82;;;1.45;;
16824;SDS011;8529;48.108;-1.706;2023-07-29T03:09:15;1.42;;;1.33;;
16824;SDS011;8529;48.108;-1.706;2023-07-29T03:11:42;2.22;;;1.50;;
16824;SDS011;8529;48.108;-1.706;2023-07-29T03:14:09;3.63;;;1.20;;
16824;SDS011;8529;48.108;-1.706;2023-07-29T03:16:36;1.45;;;1.10;;
16824;SDS011;8529;48.108;-1.706;2023-07-29T03:19:03;2.53;;;1.50;;
16824;SDS011;8529;48.108;-1.706;2023-07-29T03:21:31;2.22;;;1.55;;
16824;SDS011;8529;48.108;-1.706;2023-07-29T03:23:59;5.03;;;1.70;;
16824;SDS011;8529;48.108;-1.706;2023-07-29T03:26:26;1.35;;;1.10;;
16824;SDS011;8529;48.108;-1.706;2023-07-29T03:28:53;3.25;;;1.45;;
16824;SDS011;8529;48.108;-1.706;2023-07-29T03:31:20;3.65;;;1.17;;
16824;SDS011;8529;48.108;-1.706;2023-07-29T03:33:47;2.67;;;1.30;;
16824;SDS011;8529;48.108;-1.706;2023-07-29T03:36:14;1.38;;;1.27;;
16824;SDS011;8529;48.108;-1.706;2023-07-29T03:38:41;1.88;;;1.35;;
16824;SDS011;8529;48.108;-1.706;2023-07-29T03:41:11;2.00;;;1.25;;
16824;SDS011;8529;48.108;-1.706;2023-07-29T03:43:38;2.30;;;1.60;;
16824;SDS011;8529;48.108;-1.706;2023-07-29T03:46:05;2.10;;;1.48;;
16824;SDS011;8529;48.108;-1.706;2023-07-29T03:48:32;2.67;;;1.42;;
16824;SDS011;8529;48.108;-1.706;2023-07-29T03:50:58;3.40;;;1.92;;
16824;SDS011;8529;48.108;-1.706;2023-07-29T03:53:25;2.08;;;1.40;;
16824;SDS011;8529;48.108;-1.706;2023-07-29T03:55:52;2.08;;;1.50;;
16824;SDS011;8529;48.108;-1.706;2023-07-29T03:58:20;3.17;;;2.00;;
16824;SDS011;8529;48.108;-1.706;2023-07-29T04:00:47;2.95;;;1.52;;
16824;SDS011;8529;48.108;-1.706;2023-07-29T04:03:14;2.17;;;1.38;;
16824;SDS011;8529;48.108;-1.706;2023-07-29T04:05:41;2.75;;;1.50;;
16824;SDS011;8529;48.108;-1.706;2023-07-29T04:08:08;4.15;;;1.63;;
16824;SDS011;8529;48.108;-1.706;2023-07-29T04:10:35;3.53;;;1.63;;
16824;SDS011;8529;48.108;-1.706;2023-07-29T04:13:03;3.90;;;1.52;;
16824;SDS011;8529;48.108;-1.706;2023-07-29T04:15:31;3.33;;;1.50;;
16824;SDS011;8529;48.108;-1.706;2023-07-29T04:17:58;4.30;;;1.60;;
16824;SDS011;8529;48.108;-1.706;2023-07-29T04:20:25;6.60;;;1.98;;
16824;SDS011;8529;48.108;-1.706;2023-07-29T04:22:52;2.47;;;1.45;;
16824;SDS011;8529;48.108;-1.706;2023-07-29T04:25:19;2.65;;;1.52;;
16824;SDS011;8529;48.108;-1.706;2023-07-29T04:27:46;1.73;;;1.20;;
16824;SDS011;8529;48.108;-1.706;2023-07-29T04:30:13;1.95;;;1.20;;
16824;SDS011;8529;48.108;-1.706;2023-07-29T04:32:41;4.68;;;1.65;;
16824;SDS011;8529;48.108;-1.706;2023-07-29T04:35:10;1.50;;;1.38;;
16824;SDS011;8529;48.108;-1.706;2023-07-29T04:37:36;1.52;;;1.27;;
16824;SDS011;8529;48.108;-1.706;2023-07-29T04:40:04;4.25;;;1.67;;
16824;SDS011;8529;48.108;-1.706;2023-07-29T04:42:32;1.63;;;1.15;;
16824;SDS011;8529;48.108;-1.706;2023-07-29T04:44:59;1.52;;;1.20;;
16824;SDS011;8529;48.108;-1.706;2023-07-29T04:47:26;1.90;;;1.20;;
16824;SDS011;8529;48.108;-1.706;2023-07-29T04:49:54;1.95;;;1.33;;
16824;SDS011;8529;48.108;-1.706;2023-07-29T04:52:22;2.45;;;1.13;;
16824;SDS011;8529;48.108;-1.706;2023-07-29T04:54:50;3.53;;;1.23;;
16824;SDS011;8529;48.108;-1.706;2023-07-29T04:57:17;1.92;;;1.20;;
16824;SDS011;8529;48.108;-1.706;2023-07-29T04:59:44;1.70;;;1.25;;
16824;SDS011;8529;48.108;-1.706;2023-07-29T05:02:11;1.67;;;1.38;;
16824;SDS011;8529;48.108;-1.706;2023-07-29T05:04:39;3.38;;;1.17;;
16824;SDS011;8529;48.108;-1.706;2023-07-29T05:07:07;1.77;;;1.23;;
16824;SDS011;8529;48.108;-1.706;2023-07-29T05:09:34;1.60;;;1.27;;
16824;SDS011;8529;48.108;-1.706;2023-07-29T05:12:02;3.42;;;1.20;;
16824;SDS011;8529;48.108;-1.706;2023-07-29T05:14:29;2.22;;;1.30;;
16824;SDS011;8529;48.108;-1.706;2023-07-29T05:16:56;1.75;;;1.10;;
16824;SDS011;8529;48.108;-1.706;2023-07-29T05:19:23;1.55;;;1.20;;
16824;SDS011;8529;48.108;-1.706;2023-07-29T05:21:50;1.90;;;1.10;;
16824;SDS011;8529;48.108;-1.706;2023-07-29T05:24:19;4.00;;;1.13;;
16824;SDS011;8529;48.108;-1.706;2023-07-29T05:26:46;2.05;;;1.35;;
16824;SDS011;8529;48.108;-1.706;2023-07-29T05:29:12;1.92;;;1.08;;
16824;SDS011;8529;48.108;-1.706;2023-07-29T05:31:39;1.83;;;1.00;;
16824;SDS011;8529;48.108;-1.706;2023-07-29T05:34:06;1.10;;;0.95;;
16824;SDS011;8529;48.108;-1.706;2023-07-29T05:36:34;1.00;;;0.90;;
16824;SDS011;8529;48.108;-1.706;2023-07-29T05:39:00;0.85;;;0.70;;
16824;SDS011;8529;48.108;-1.706;2023-07-29T05:41:29;2.22;;;1.15;;
16824;SDS011;8529;48.108;-1.706;2023-07-29T05:43:55;1.00;;;0.90;;
16824;SDS011;8529;48.108;-1.706;2023-07-29T05:46:22;1.88;;;0.90;;
16824;SDS011;8529;48.108;-1.706;2023-07-29T05:48:49;1.33;;;0.90;;
16824;SDS011;8529;48.108;-1.706;2023-07-29T05:51:16;0.75;;;0.70;;
16824;SDS011;8529;48.108;-1.706;2023-07-29T05:53:43;1.80;;;1.00;;
16824;SDS011;8529;48.108;-1.706;2023-07-29T05:56:10;0.57;;;0.55;;
16824;SDS011;8529;48.108;-1.706;2023-07-29T05:58:38;0.60;;;0.60;;
16824;SDS011;8529;48.108;-1.706;2023-07-29T06:01:05;0.70;;;0.60;;
16824;SDS011;8529;48.108;-1.706;2023-07-29T06:03:32;0.85;;;0.55;;
16824;SDS011;8529;48.108;-1.706;2023-07-29T06:05:59;1.17;;;0.70;;
16824;SDS011;8529;48.108;-1.706;2023-07-29T06:08:26;0.65;;;0.60;;
16824;SDS011;8529;48.108;-1.706;2023-07-29T06:10:53;1.10;;;0.80;;
16824;SDS011;8529;48.108;-1.706;2023-07-29T06:13:20;1.25;;;0.88;;
16824;SDS011;8529;48.108;-1.706;2023-07-29T06:15:48;0.88;;;0.70;;
16824;SDS011;8529;48.108;-1.706;2023-07-29T06:18:16;0.90;;;0.80;;
16824;SDS011;8529;48.108;-1.706;2023-07-29T06:20:42;1.17;;;0.88;;
16824;SDS011;8529;48.108;-1.706;2023-07-29T06:23:09;0.82;;;0.73;;
16824;SDS011;8529;48.108;-1.706;2023-07-29T06:25:36;2.60;;;0.85;;
16824;SDS011;8529;48.108;-1.706;2023-07-29T06:28:03;1.02;;;0.90;;
16824;SDS011;8529;48.108;-1.706;2023-07-29T06:30:30;1.48;;;0.88;;
16824;SDS011;8529;48.108;-1.706;2023-07-29T06:32:59;1.38;;;1.17;;
16824;SDS011;8529;48.108;-1.706;2023-07-29T06:35:26;1.40;;;0.95;;
16824;SDS011;8529;48.108;-1.706;2023-07-29T06:37:53;2.00;;;1.13;;
16824;SDS011;8529;48.108;-1.706;2023-07-29T06:40:19;1.52;;;1.15;;
16824;SDS011;8529;48.108;-1.706;2023-07-29T06:42:46;1.13;;;0.82;;
16824;SDS011;8529;48.108;-1.706;2023-07-29T06:45:13;1.90;;;1.00;;
16824;SDS011;8529;48.108;-1.706;2023-07-29T06:47:41;0.95;;;0.82;;
16824;SDS011;8529;48.108;-1.706;2023-07-29T06:50:10;2.13;;;1.10;;
16824;SDS011;8529;48.108;-1.706;2023-07-29T06:52:37;1.42;;;0.93;;
16824;SDS011;8529;48.108;-1.706;2023-07-29T06:55:05;0.98;;;0.77;;
16824;SDS011;8529;48.108;-1.706;2023-07-29T06:57:32;1.45;;;0.95;;
16824;SDS011;8529;48.108;-1.706;2023-07-29T06:59:59;1.10;;;0.90;;
16824;SDS011;8529;48.108;-1.706;2023-07-29T07:02:26;2.08;;;0.90;;
16824;SDS011;8529;48.108;-1.706;2023-07-29T07:04:53;1.83;;;1.38;;
16824;SDS011;8529;48.108;-1.706;2023-07-29T07:07:21;1.42;;;0.80;;
16824;SDS011;8529;48.108;-1.706;2023-07-29T07:09:48;2.55;;;0.95;;
16824;SDS011;8529;48.108;-1.706;2023-07-29T07:12:15;1.00;;;0.90;;
16824;SDS011;8529;48.108;-1.706;2023-07-29T07:14:42;1.77;;;1.25;;
16824;SDS011;8529;48.108;-1.706;2023-07-29T07:17:09;1.30;;;0.90;;
16824;SDS011;8529;48.108;-1.706;2023-07-29T07:19:36;1.95;;;1.08;;
16824;SDS011;8529;48.108;-1.706;2023-07-29T07:22:03;2.22;;;1.00;;
16824;SDS011;8529;48.108;-1.706;2023-07-29T07:24:31;1.40;;;0.98;;
16824;SDS011;8529;48.108;-1.706;2023-07-29T07:26:58;1.15;;;1.00;;
16824;SDS011;8529;48.108;-1.706;2023-07-29T07:29:25;2.03;;;1.00;;
16824;SDS011;8529;48.108;-1.706;2023-07-29T07:31:52;1.58;;;1.02;;
16824;SDS011;8529;48.108;-1.706;2023-07-29T07:34:20;2.47;;;1.23;;
16824;SDS011;8529;48.108;-1.706;2023-07-29T07:36:47;1.55;;;1.10;;
16824;SDS011;8529;48.108;-1.706;2023-07-29T07:39:14;2.72;;;1.10;;
16824;SDS011;8529;48.108;-1.706;2023-07-29T07:41:43;1.55;;;1.20;;
16824;SDS011;8529;48.108;-1.706;2023-07-29T07:44:10;2.15;;;1.20;;
16824;SDS011;8529;48.108;-1.706;2023-07-29T07:46:40;1.20;;;1.10;;
16824;SDS011;8529;48.108;-1.706;2023-07-29T07:49:07;2.13;;;1.33;;
16824;SDS011;8529;48.108;-1.706;2023-07-29T07:51:34;1.83;;;1.40;;
16824;SDS011;8529;48.108;-1.706;2023-07-29T07:54:01;1.20;;;1.10;;
16824;SDS011;8529;48.108;-1.706;2023-07-29T07:56:28;4.15;;;1.60;;
16824;SDS011;8529;48.108;-1.706;2023-07-29T07:58:56;1.10;;;0.98;;
16824;SDS011;8529;48.108;-1.706;2023-07-29T08:01:23;1.83;;;1.50;;
16824;SDS011;8529;48.108;-1.706;2023-07-29T08:03:50;1.67;;;1.33;;
16824;SDS011;8529;48.108;-1.706;2023-07-29T08:06:17;4.53;;;1.30;;
16824;SDS011;8529;48.108;-1.706;2023-07-29T08:08:44;1.90;;;1.27;;
16824;SDS011;8529;48.108;-1.706;2023-07-29T08:11:11;2.15;;;1.30;;
16824;SDS011;8529;48.108;-1.706;2023-07-29T08:13:38;2.25;;;1.25;;
16824;SDS011;8529;48.108;-1.706;2023-07-29T08:16:06;2.35;;;1.30;;
16824;SDS011;8529;48.108;-1.706;2023-07-29T08:18:33;3.03;;;1.35;;
16824;SDS011;8529;48.108;-1.706;2023-07-29T08:21:00;1.88;;;1.40;;
16824;SDS011;8529;48.108;-1.706;2023-07-29T08:23:29;3.05;;;1.20;;
16824;SDS011;8529;48.108;-1.706;2023-07-29T08:25:56;3.22;;;1.38;;
16824;SDS011;8529;48.108;-1.706;2023-07-29T08:28:26;2.35;;;1.42;;
16824;SDS011;8529;48.108;-1.706;2023-07-29T08:30:54;1.90;;;1.45;;
16824;SDS011;8529;48.108;-1.706;2023-07-29T08:33:22;2.30;;;1.20;;
16824;SDS011;8529;48.108;-1.706;2023-07-29T08:35:49;2.03;;;1.40;;
16824;SDS011;8529;48.108;-1.706;2023-07-29T08:38:16;1.42;;;1.20;;
16824;SDS011;8529;48.108;-1.706;2023-07-29T08:40:45;2.85;;;1.40;;
16824;SDS011;8529;48.108;-1.706;2023-07-29T08:43:14;1.58;;;1.48;;
16824;SDS011;8529;48.108;-1.706;2023-07-29T08:45:44;2.85;;;1.45;;
16824;SDS011;8529;48.108;-1.706;2023-07-29T08:48:11;2.63;;;1.40;;
16824;SDS011;8529;48.108;-1.706;2023-07-29T08:50:43;2.15;;;1.27;;
16824;SDS011;8529;48.108;-1.706;2023-07-29T08:53:11;3.08;;;1.40;;
16824;SDS011;8529;48.108;-1.706;2023-07-29T08:55:39;1.75;;;1.60;;
16824;SDS011;8529;48.108;-1.706;2023-07-29T08:58:06;3.95;;;1.50;;
16824;SDS011;8529;48.108;-1.706;2023-07-29T09:00:34;2.63;;;1.38;;
16824;SDS011;8529;48.108;-1.706;2023-07-29T09:03:01;3.15;;;1.30;;
16824;SDS011;8529;48.108;-1.706;2023-07-29T09:05:32;3.00;;;1.70;;
16824;SDS011;8529;48.108;-1.706;2023-07-29T09:08:01;2.75;;;1.90;;
16824;SDS011;8529;48.108;-1.706;2023-07-29T09:10:29;1.67;;;1.50;;
16824;SDS011;8529;48.108;-1.706;2023-07-29T09:12:56;1.95;;;1.45;;
16824;SDS011;8529;48.108;-1.706;2023-07-29T09:15:26;4.13;;;1.90;;
16824;SDS011;8529;48.108;-1.706;2023-07-29T09:17:55;1.38;;;1.27;;
16824;SDS011;8529;48.108;-1.706;2023-07-29T09:20:25;3.38;;;1.52;;
16824;SDS011;8529;48.108;-1.706;2023-07-29T09:22:55;2.42;;;1.50;;
16824;SDS011;8529;48.108;-1.706;2023-07-29T09:25:27;3.05;;;1.45;;
16824;SDS011;8529;48.108;-1.706;2023-07-29T09:27:58;3.50;;;1.50;;
16824;SDS011;8529;48.108;-1.706;2023-07-29T09:30:26;2.95;;;1.48;;
16824;SDS011;8529;48.108;-1.706;2023-07-29T09:32:54;2.03;;;1.67;;
16824;SDS011;8529;48.108;-1.706;2023-07-29T09:35:22;4.90;;;2.17;;
16824;SDS011;8529;48.108;-1.706;2023-07-29T09:37:50;2.83;;;1.67;;
16824;SDS011;8529;48.108;-1.706;2023-07-29T09:40:17;2.95;;;1.40;;
16824;SDS011;8529;48.108;-1.706;2023-07-29T09:42:49;1.98;;;1.55;;
16824;SDS011;8529;48.108;-1.706;2023-07-29T09:45:20;2.67;;;1.50;;
16824;SDS011;8529;48.108;-1.706;2023-07-29T09:47:47;2.40;;;1.58;;
16824;SDS011;8529;48.108;-1.706;2023-07-29T09:50:15;2.83;;;1.45;;
16824;SDS011;8529;48.108;-1.706;2023-07-29T09:52:42;2.20;;;1.40;;
16824;SDS011;8529;48.108;-1.706;2023-07-29T09:55:10;2.20;;;1.50;;
16824;SDS011;8529;48.108;-1.706;2023-07-29T09:57:38;2.58;;;1.60;;
16824;SDS011;8529;48.108;-1.706;2023-07-29T10:00:10;2.33;;;1.33;;
16824;SDS011;8529;48.108;-1.706;2023-07-29T10:02:38;3.63;;;1.48;;
16824;SDS011;8529;48.108;-1.706;2023-07-29T10:05:06;3.25;;;2.03;;
16824;SDS011;8529;48.108;-1.706;2023-07-29T10:07:34;5.38;;;2.10;;
16824;SDS011;8529;48.108;-1.706;2023-07-29T10:10:03;6.00;;;2.38;;
16824;SDS011;8529;48.108;-1.706;2023-07-29T10:12:31;2.65;;;1.60;;
16824;SDS011;8529;48.108;-1.706;2023-07-29T10:14:59;1.92;;;1.52;;
16824;SDS011;8529;48.108;-1.706;2023-07-29T10:17:29;3.50;;;2.50;;
16824;SDS011;8529;48.108;-1.706;2023-07-29T10:19:56;2.33;;;1.60;;
16824;SDS011;8529;48.108;-1.706;2023-07-29T10:22:24;2.85;;;1.63;;
16824;SDS011;8529;48.108;-1.706;2023-07-29T10:24:54;2.13;;;1.30;;
16824;SDS011;8529;48.108;-1.706;2023-07-29T10:27:29;4.15;;;1.92;;
16824;SDS011;8529;48.108;-1.706;2023-07-29T10:30:00;3.33;;;2.10;;
16824;SDS011;8529;48.108;-1.706;2023-07-29T10:32:29;3.15;;;1.48;;
16824;SDS011;8529;48.108;-1.706;2023-07-29T10:34:58;3.85;;;1.40;;
16824;SDS011;8529;48.108;-1.706;2023-07-29T10:37:25;3.08;;;1.23;;
16824;SDS011;8529;48.108;-1.706;2023-07-29T10:39:52;1.83;;;1.42;;
16824;SDS011;8529;48.108;-1.706;2023-07-29T10:42:20;2.38;;;1.75;;
16824;SDS011;8529;48.108;-1.706;2023-07-29T10:44:51;2.92;;;1.77;;
16824;SDS011;8529;48.108;-1.706;2023-07-29T10:47:19;3.58;;;2.03;;
16824;SDS011;8529;48.108;-1.706;2023-07-29T10:49:49;2.90;;;1.85;;
16824;SDS011;8529;48.108;-1.706;2023-07-29T10:52:27;2.75;;;1.30;;
16824;SDS011;8529;48.108;-1.706;2023-07-29T10:54:55;3.05;;;1.58;;
16824;SDS011;8529;48.108;-1.706;2023-07-29T10:57:30;1.95;;;1.55;;
16824;SDS011;8529;48.108;-1.706;2023-07-29T10:59:57;2.72;;;1.80;;
16824;SDS011;8529;48.108;-1.706;2023-07-29T11:02:28;2.30;;;1.30;;
16824;SDS011;8529;48.108;-1.706;2023-07-29T11:04:57;2.75;;;1.50;;
16824;SDS011;8529;48.108;-1.706;2023-07-29T11:07:25;3.40;;;1.70;;
16824;SDS011;8529;48.108;-1.706;2023-07-29T11:09:54;1.25;;;1.15;;
16824;SDS011;8529;48.108;-1.706;2023-07-29T11:12:39;3.30;;;1.90;;
16824;SDS011;8529;48.108;-1.706;2023-07-29T11:15:18;3.53;;;1.25;;
16824;SDS011;8529;48.108;-1.706;2023-07-29T11:17:47;2.22;;;1.25;;
16824;SDS011;8529;48.108;-1.706;2023-07-29T11:20:16;2.72;;;1.45;;
16824;SDS011;8529;48.108;-1.706;2023-07-29T11:22:44;3.85;;;1.67;;
16824;SDS011;8529;48.108;-1.706;2023-07-29T11:25:13;1.55;;;1.30;;
16824;SDS011;8529;48.108;-1.706;2023-07-29T11:27:41;2.35;;;1.40;;
16824;SDS011;8529;48.108;-1.706;2023-07-29T11:30:09;1.90;;;1.30;;
16824;SDS011;8529;48.108;-1.706;2023-07-29T11:32:37;1.95;;;1.60;;
16824;SDS011;8529;48.108;-1.706;2023-07-29T11:35:05;2.20;;;1.63;;
16824;SDS011;8529;48.108;-1.706;2023-07-29T11:37:36;1.65;;;1.15;;
16824;SDS011;8529;48.108;-1.706;2023-07-29T11:40:04;3.30;;;1.30;;
16824;SDS011;8529;48.108;-1.706;2023-07-29T11:42:32;4.35;;;1.70;;
16824;SDS011;8529;48.108;-1.706;2023-07-29T11:45:00;3.42;;;1.50;;
16824;SDS011;8529;48.108;-1.706;2023-07-29T11:47:28;5.32;;;2.20;;
16824;SDS011;8529;48.108;-1.706;2023-07-29T11:49:57;2.03;;;1.75;;
16824;SDS011;8529;48.108;-1.706;2023-07-29T11:52:25;1.80;;;1.55;;
16824;SDS011;8529;48.108;-1.706;2023-07-29T11:54:55;1.55;;;1.42;;
16824;SDS011;8529;48.108;-1.706;2023-07-29T11:57:23;3.63;;;1.88;;
16824;SDS011;8529;48.108;-1.706;2023-07-29T11:59:51;1.92;;;1.48;;
16824;SDS011;8529;48.108;-1.706;2023-07-29T12:02:19;1.38;;;1.27;;
16824;SDS011;8529;48.108;-1.706;2023-07-29T12:04:47;3.58;;;1.50;;
16824;SDS011;8529;48.108;-1.706;2023-07-29T12:07:16;1.60;;;1.30;;
16824;SDS011;8529;48.108;-1.706;2023-07-29T12:09:43;2.60;;;1.42;;
16824;SDS011;8529;48.108;-1.706;2023-07-29T12:12:13;3.83;;;1.48;;
16824;SDS011;8529;48.108;-1.706;2023-07-29T12:14:43;1.42;;;1.30;;
16824;SDS011;8529;48.108;-1.706;2023-07-29T12:17:12;2.13;;;1.50;;
16824;SDS011;8529;48.108;-1.706;2023-07-29T12:19:39;1.98;;;1.35;;
16824;SDS011;8529;48.108;-1.706;2023-07-29T12:22:07;4.30;;;1.40;;
16824;SDS011;8529;48.108;-1.706;2023-07-29T12:24:37;3.28;;;1.50;;
16824;SDS011;8529;48.108;-1.706;2023-07-29T12:27:05;3.15;;;1.60;;
16824;SDS011;8529;48.108;-1.706;2023-07-29T12:29:40;2.72;;;1.30;;
16824;SDS011;8529;48.108;-1.706;2023-07-29T12:32:08;1.58;;;1.20;;
16824;SDS011;8529;48.108;-1.706;2023-07-29T12:34:36;3.00;;;1.38;;
16824;SDS011;8529;48.108;-1.706;2023-07-29T12:37:05;2.10;;;1.33;;
16824;SDS011;8529;48.108;-1.706;2023-07-29T12:39:33;1.77;;;1.00;;
16824;SDS011;8529;48.108;-1.706;2023-07-29T12:42:02;2.45;;;1.30;;
16824;SDS011;8529;48.108;-1.706;2023-07-29T12:44:30;2.75;;;1.40;;
16824;SDS011;8529;48.108;-1.706;2023-07-29T12:46:59;3.83;;;1.40;;
16824;SDS011;8529;48.108;-1.706;2023-07-29T12:49:27;1.83;;;1.25;;
16824;SDS011;8529;48.108;-1.706;2023-07-29T12:51:54;4.00;;;1.65;;
16824;SDS011;8529;48.108;-1.706;2023-07-29T12:54:21;1.45;;;1.35;;
16824;SDS011;8529;48.108;-1.706;2023-07-29T12:56:48;1.98;;;1.38;;
16824;SDS011;8529;48.108;-1.706;2023-07-29T12:59:15;1.90;;;1.40;;
16824;SDS011;8529;48.108;-1.706;2023-07-29T13:01:42;1.65;;;1.23;;
16824;SDS011;8529;48.108;-1.706;2023-07-29T13:04:11;3.55;;;1.58;;
16824;SDS011;8529;48.108;-1.706;2023-07-29T13:06:38;1.85;;;1.27;;
16824;SDS011;8529;48.108;-1.706;2023-07-29T13:09:05;2.92;;;1.15;;
16824;SDS011;8529;48.108;-1.706;2023-07-29T13:11:32;2.08;;;1.33;;
16824;SDS011;8529;48.108;-1.706;2023-07-29T13:13:59;3.17;;;1.38;;
16824;SDS011;8529;48.108;-1.706;2023-07-29T13:16:26;1.40;;;1.30;;
16824;SDS011;8529;48.108;-1.706;2023-07-29T13:18:54;2.53;;;1.35;;
16824;SDS011;8529;48.108;-1.706;2023-07-29T13:21:22;1.95;;;1.02;;
16824;SDS011;8529;48.108;-1.706;2023-07-29T13:23:49;1.55;;;1.42;;
16824;SDS011;8529;48.108;-1.706;2023-07-29T13:26:16;1.58;;;0.95;;
16824;SDS011;8529;48.108;-1.706;2023-07-29T13:28:43;1.58;;;1.20;;
16824;SDS011;8529;48.108;-1.706;2023-07-29T13:31:10;2.35;;;1.30;;
16824;SDS011;8529;48.108;-1.706;2023-07-29T13:33:38;1.25;;;1.15;;
16824;SDS011;8529;48.108;-1.706;2023-07-29T13:36:05;1.30;;;1.10;;
16824;SDS011;8529;48.108;-1.706;2023-07-29T13:38:34;2.42;;;1.35;;
16824;SDS011;8529;48.108;-1.706;2023-07-29T13:41:01;1.83;;;1.20;;
16824;SDS011;8529;48.108;-1.706;2023-07-29T13:43:28;1.85;;;0.95;;
16824;SDS011;8529;48.108;-1.706;2023-07-29T13:45:55;2.03;;;1.10;;
16824;SDS011;8529;48.108;-1.706;2023-07-29T13:48:22;2.75;;;1.17;;
16824;SDS011;8529;48.108;-1.706;2023-07-29T13:50:49;2.58;;;1.25;;
16824;SDS011;8529;48.108;-1.706;2023-07-29T13:53:16;1.63;;;1.13;;
16824;SDS011;8529;48.108;-1.706;2023-07-29T13:55:44;1.25;;;1.00;;
16824;SDS011;8529;48.108;-1.706;2023-07-29T13:58:11;1.63;;;0.90;;
16824;SDS011;8529;48.108;-1.706;2023-07-29T14:00:38;1.67;;;0.93;;
16824;SDS011;8529;48.108;-1.706;2023-07-29T14:03:05;1.30;;;0.95;;
16824;SDS011;8529;48.108;-1.706;2023-07-29T14:05:32;2.08;;;1.40;;
16824;SDS011;8529;48.108;-1.706;2023-07-29T14:07:59;1.13;;;0.90;;
16824;SDS011;8529;48.108;-1.706;2023-07-29T14:10:26;1.42;;;1.10;;
16824;SDS011;8529;48.108;-1.706;2023-07-29T14:12:54;2.33;;;1.10;;
16824;SDS011;8529;48.108;-1.706;2023-07-29T14:15:21;1.42;;;1.10;;
16824;SDS011;8529;48.108;-1.706;2023-07-29T14:17:48;1.33;;;1.05;;
16824;SDS011;8529;48.108;-1.706;2023-07-29T14:20:15;2.08;;;1.23;;
16824;SDS011;8529;48.108;-1.706;2023-07-29T14:22:42;1.20;;;1.00;;
16824;SDS011;8529;48.108;-1.706;2023-07-29T14:25:09;6.90;;;1.52;;
16824;SDS011;8529;48.108;-1.706;2023-07-29T14:27:36;1.83;;;1.50;;
16824;SDS011;8529;48.108;-1.706;2023-07-29T14:30:05;3.03;;;1.40;;
16824;SDS011;8529;48.108;-1.706;2023-07-29T14:32:33;1.63;;;1.25;;
16824;SDS011;8529;48.108;-1.706;2023-07-29T14:35:00;3.53;;;1.40;;
16824;SDS011;8529;48.108;-1.706;2023-07-29T14:37:28;2.05;;;1.33;;
16824;SDS011;8529;48.108;-1.706;2023-07-29T14:39:56;1.23;;;0.98;;
16824;SDS011;8529;48.108;-1.706;2023-07-29T14:42:23;1.75;;;1.25;;
16824;SDS011;8529;48.108;-1.706;2023-07-29T14:44:50;1.98;;;1.00;;
16824;SDS011;8529;48.108;-1.706;2023-07-29T14:47:18;4.35;;;1.75;;
16824;SDS011;8529;48.108;-1.706;2023-07-29T14:49:45;1.48;;;1.33;;
16824;SDS011;8529;48.108;-1.706;2023-07-29T14:52:12;2.42;;;1.50;;